Brohman, Michigan
Current Conditions -  °F | °C
As of 2:35 PM on Thursday 23 Oct 2014 (Local Time) from KRQB Reporting Station
Clear Clear  
Wind Chill: 54°   Ceiling: Unl
Heat Index: 54°   Visibility: 10mi
Dew Point: 46°   Wind: 5mph
Humidity: 73%   Direction: 290°WNW
Pressure: 30.14"   Gusts: NA
Location:  43.69°N, 85.82°W
Report Text: KRQB 231835Z AUTO 29004KT 10SM CLR 12/08 A3014 RMK AO2 T01220075
Loading
Personal Weather Stations






























Interactive Weather Map
Tropical Storm Tracking
New forecast layout! Learn more

10-Day Weather Forecast

Advertisements
Track Severe Weather on mobile